createdAt,value
2018-12-09T00:00:01.769Z,4.00
2018-12-09T00:01:01.784Z,4.00
2018-12-09T00:02:01.800Z,4.00
2018-12-09T00:03:01.817Z,4.00
2018-12-09T00:04:01.833Z,4.00
2018-12-09T00:05:01.851Z,4.00
2018-12-09T00:06:01.866Z,4.00
2018-12-09T00:07:01.881Z,4.00
2018-12-09T00:08:01.895Z,4.00
2018-12-09T00:09:01.913Z,4.00
2018-12-09T00:10:01.977Z,4.00
2018-12-09T00:11:01.942Z,4.00
2018-12-09T00:12:01.961Z,4.00
2018-12-09T00:13:01.978Z,4.00
2018-12-09T00:14:01.994Z,4.00
2018-12-09T00:15:02.007Z,4.00
2018-12-09T00:16:02.024Z,4.00
2018-12-09T00:17:02.038Z,4.00
2018-12-09T00:18:02.057Z,8.00
2018-12-09T00:19:02.072Z,8.00
2018-12-09T00:20:02.089Z,8.00
2018-12-09T00:21:02.102Z,8.00
2018-12-09T00:22:02.117Z,8.00
2018-12-09T00:23:02.137Z,8.00
2018-12-09T00:24:02.153Z,4.00
2018-12-09T00:25:02.166Z,4.00
2018-12-09T00:26:02.183Z,4.00
2018-12-09T00:27:02.196Z,4.00
2018-12-09T00:28:02.212Z,4.00
2018-12-09T00:29:02.229Z,4.00
2018-12-09T00:30:02.247Z,4.00
2018-12-09T00:31:02.263Z,4.00
2018-12-09T00:32:02.280Z,4.00
2018-12-09T00:33:02.297Z,4.00
2018-12-09T00:34:02.312Z,4.00
2018-12-09T00:35:02.328Z,4.00
2018-12-09T00:36:02.341Z,4.00
2018-12-09T00:37:02.356Z,4.00
2018-12-09T00:38:02.376Z,4.00
2018-12-09T00:39:02.390Z,4.00
2018-12-09T00:40:02.403Z,4.00
2018-12-09T00:41:02.422Z,4.00
2018-12-09T00:42:02.436Z,4.00
2018-12-09T00:43:02.453Z,4.00
2018-12-09T00:44:02.469Z,4.00
2018-12-09T00:45:02.487Z,4.00
2018-12-09T00:46:02.500Z,4.00
2018-12-09T00:47:02.565Z,4.00
2018-12-09T00:48:02.532Z,4.00
2018-12-09T00:49:02.550Z,4.00
2018-12-09T00:50:02.564Z,4.00
2018-12-09T00:51:02.579Z,4.00
2018-12-09T00:52:02.599Z,4.00
2018-12-09T00:53:02.615Z,4.00
2018-12-09T00:54:02.627Z,4.00
2018-12-09T00:55:02.645Z,4.00
2018-12-09T00:56:02.661Z,4.00
2018-12-09T00:57:02.675Z,4.00
2018-12-09T00:58:02.694Z,4.00
2018-12-09T00:59:02.707Z,4.00
2018-12-09T01:00:02.729Z,4.00
2018-12-09T01:01:02.742Z,4.00
2018-12-09T01:02:02.756Z,4.00
2018-12-09T01:03:02.773Z,4.00
2018-12-09T01:04:02.790Z,4.00
2018-12-09T01:05:02.804Z,4.00
2018-12-09T01:06:02.824Z,4.00
2018-12-09T01:07:02.839Z,4.00
2018-12-09T01:08:02.852Z,4.00
2018-12-09T01:09:02.871Z,4.00
2018-12-09T01:10:02.889Z,4.00
2018-12-09T01:11:02.901Z,4.00
2018-12-09T01:12:02.922Z,4.00
2018-12-09T01:13:02.936Z,4.00
2018-12-09T01:14:02.950Z,4.00
2018-12-09T01:15:02.966Z,4.00
2018-12-09T01:16:02.982Z,4.00
2018-12-09T01:17:02.999Z,4.00
2018-12-09T01:18:03.016Z,4.00
2018-12-09T01:19:03.030Z,4.00
2018-12-09T01:20:03.051Z,4.00
2018-12-09T01:21:03.067Z,4.00
2018-12-09T01:22:03.081Z,4.00
2018-12-09T01:23:03.099Z,4.00
2018-12-09T01:24:03.116Z,4.00
2018-12-09T01:25:03.129Z,4.00
2018-12-09T01:26:03.147Z,4.00
2018-12-09T01:27:03.165Z,0.00
2018-12-09T01:28:03.178Z,4.00
2018-12-09T01:29:03.194Z,4.00
2018-12-09T01:30:03.210Z,4.00
2018-12-09T01:31:03.229Z,4.00
2018-12-09T01:32:03.245Z,4.00
2018-12-09T01:33:03.261Z,4.00
2018-12-09T01:34:03.276Z,4.00
2018-12-09T01:35:03.291Z,4.00
2018-12-09T01:36:03.310Z,4.00
2018-12-09T01:37:03.327Z,4.00
2018-12-09T01:38:03.344Z,4.00
2018-12-09T01:39:03.358Z,4.00
2018-12-09T01:40:03.375Z,4.00
2018-12-09T01:41:03.392Z,4.00
2018-12-09T01:42:03.456Z,4.00
2018-12-09T01:43:03.422Z,4.00
2018-12-09T01:44:03.441Z,4.00
2018-12-09T01:45:03.457Z,4.00
2018-12-09T01:46:03.474Z,4.00
2018-12-09T01:47:03.488Z,4.00
2018-12-09T01:48:03.507Z,4.00
2018-12-09T01:49:03.523Z,4.00
2018-12-09T01:50:03.540Z,4.00
2018-12-09T01:51:03.553Z,4.00
2018-12-09T01:52:03.572Z,4.00
2018-12-09T01:53:03.840Z,4.00
2018-12-09T01:54:03.603Z,4.00
2018-12-09T01:55:03.619Z,4.00
2018-12-09T01:56:03.638Z,4.00
2018-12-09T01:57:03.654Z,4.00
2018-12-09T01:58:03.670Z,4.00
2018-12-09T01:59:03.684Z,4.00
2018-12-09T02:00:03.701Z,4.00
2018-12-09T02:01:03.720Z,4.00
2018-12-09T02:02:03.737Z,4.00
2018-12-09T02:05:03.784Z,4.00
2018-12-09T02:06:03.803Z,4.00
2018-12-09T02:07:03.817Z,4.00
2018-12-09T02:08:03.835Z,4.00
2018-12-09T02:09:03.853Z,4.00
2018-12-09T02:10:03.871Z,4.00
2018-12-09T02:11:03.883Z,4.00
2018-12-09T02:12:03.901Z,4.00
2018-12-09T02:13:03.919Z,4.00
2018-12-09T02:14:03.933Z,4.00
2018-12-09T02:15:03.950Z,4.00
2018-12-09T02:16:04.062Z,4.00
2018-12-09T02:17:03.982Z,4.00
2018-12-09T02:18:03.999Z,4.00
2018-12-09T02:19:04.014Z,4.00
2018-12-09T02:20:04.031Z,4.00
2018-12-09T02:21:04.048Z,4.00
2018-12-09T02:22:04.067Z,4.00
2018-12-09T02:23:04.080Z,4.00
2018-12-09T02:24:04.108Z,4.00
2018-12-09T02:25:04.117Z,4.00
2018-12-09T02:26:04.131Z,4.00
2018-12-09T02:27:04.147Z,4.00
2018-12-09T02:28:04.165Z,4.00
2018-12-09T02:29:04.184Z,4.00
2018-12-09T02:30:04.198Z,4.00
2018-12-09T02:31:04.213Z,4.00
2018-12-09T02:32:04.232Z,4.00
2018-12-09T02:33:04.249Z,4.00
2018-12-09T02:34:04.266Z,4.00
2018-12-09T02:35:04.283Z,4.00
2018-12-09T02:36:04.306Z,4.00
2018-12-09T02:37:04.316Z,4.00
2018-12-09T02:38:04.334Z,4.00
2018-12-09T02:39:04.449Z,4.00
2018-12-09T02:40:04.369Z,4.00
2018-12-09T02:41:04.385Z,4.00
2018-12-09T02:42:04.398Z,4.00
2018-12-09T02:43:04.413Z,4.00
2018-12-09T02:44:04.432Z,4.00
2018-12-09T02:45:04.452Z,4.00
2018-12-09T02:46:04.467Z,4.00
2018-12-09T02:47:04.485Z,4.00
2018-12-09T02:48:04.499Z,4.00
2018-12-09T02:49:04.514Z,4.00
2018-12-09T02:50:04.533Z,4.00
2018-12-09T02:51:04.547Z,4.00
2018-12-09T02:52:04.566Z,4.00
2018-12-09T02:53:04.581Z,4.00
2018-12-09T02:54:04.598Z,4.00
2018-12-09T02:55:04.614Z,4.00
2018-12-09T02:56:04.633Z,4.00
2018-12-09T02:57:04.650Z,4.00
2018-12-09T02:58:04.679Z,4.00
2018-12-09T02:59:04.689Z,4.00
2018-12-09T03:00:04.700Z,4.00
2018-12-09T03:01:04.718Z,4.00
2018-12-09T03:02:04.735Z,4.00
2018-12-09T03:03:04.748Z,4.00
2018-12-09T03:04:04.776Z,4.00
2018-12-09T03:05:04.791Z,4.00
2018-12-09T03:06:04.802Z,4.00
2018-12-09T03:07:04.817Z,4.00
2018-12-09T03:08:04.832Z,4.00
2018-12-09T03:09:04.849Z,4.00
2018-12-09T03:10:04.866Z,4.00
2018-12-09T03:11:04.884Z,4.00
2018-12-09T03:12:04.901Z,4.00
2018-12-09T03:13:04.916Z,4.00
2018-12-09T03:14:04.935Z,4.00
2018-12-09T03:15:05.005Z,4.00
2018-12-09T03:16:04.968Z,4.00
2018-12-09T03:17:04.983Z,4.00
2018-12-09T03:18:05.000Z,4.00
2018-12-09T03:19:05.022Z,4.00
2018-12-09T03:20:05.033Z,4.00
2018-12-09T03:21:05.049Z,4.00
2018-12-09T03:22:05.068Z,4.00
2018-12-09T03:23:05.084Z,4.00
2018-12-09T03:24:05.099Z,4.00
2018-12-09T03:25:05.116Z,4.00
2018-12-09T03:26:05.137Z,4.00
2018-12-09T03:27:05.149Z,4.00
2018-12-09T03:28:05.168Z,4.00
2018-12-09T03:29:05.183Z,4.00
2018-12-09T03:30:05.200Z,4.00
2018-12-09T03:31:05.246Z,4.00
2018-12-09T03:32:05.246Z,4.00
2018-12-09T03:33:05.255Z,4.00
2018-12-09T03:34:05.269Z,4.00
2018-12-09T03:35:05.283Z,4.00
2018-12-09T03:36:05.304Z,4.00
2018-12-09T03:37:05.317Z,4.00
2018-12-09T03:38:05.336Z,4.00
2018-12-09T03:39:05.361Z,4.00
2018-12-09T03:40:05.382Z,4.00
2018-12-09T03:41:05.388Z,4.00
2018-12-09T03:42:05.403Z,4.00
2018-12-09T03:43:05.418Z,4.00
2018-12-09T03:44:05.433Z,4.00
2018-12-09T03:45:05.451Z,4.00
2018-12-09T03:46:05.468Z,4.00
2018-12-09T03:47:05.487Z,4.00
2018-12-09T03:48:05.501Z,4.00
2018-12-09T03:49:05.519Z,4.00
2018-12-09T03:50:05.536Z,4.00
2018-12-09T03:51:05.550Z,0.00
2018-12-09T03:52:05.569Z,0.00
2018-12-09T03:53:05.584Z,4.00
2018-12-09T03:54:05.603Z,4.00
2018-12-09T03:55:05.618Z,0.00
2018-12-09T03:56:05.638Z,4.00
2018-12-09T03:57:05.649Z,4.00
2018-12-09T03:58:05.669Z,4.00
2018-12-09T03:59:05.683Z,4.00
2018-12-09T04:00:05.700Z,4.00
2018-12-09T04:01:05.716Z,4.00
2018-12-09T04:02:05.732Z,4.00
2018-12-09T04:03:05.757Z,4.00
2018-12-09T04:04:05.774Z,4.00
2018-12-09T04:05:05.780Z,4.00
2018-12-09T04:06:05.798Z,4.00
2018-12-09T04:07:05.816Z,4.00
2018-12-09T04:08:05.830Z,4.00
2018-12-09T04:09:05.847Z,4.00
2018-12-09T04:10:05.872Z,4.00
2018-12-09T04:11:05.878Z,0.00
2018-12-09T04:12:05.894Z,4.00
2018-12-09T04:13:05.911Z,4.00
2018-12-09T04:14:05.930Z,4.00
2018-12-09T04:15:05.944Z,4.00
2018-12-09T04:16:05.960Z,4.00
2018-12-09T04:17:05.977Z,4.00
2018-12-09T04:18:05.999Z,4.00
2018-12-09T04:19:06.009Z,4.00
2018-12-09T04:20:06.033Z,0.00
2018-12-09T04:21:06.045Z,0.00
2018-12-09T04:22:06.067Z,0.00
2018-12-09T04:23:06.075Z,4.00
2018-12-09T04:24:06.094Z,4.00
2018-12-09T04:25:06.109Z,4.00
2018-12-09T04:26:06.125Z,4.00
2018-12-09T04:27:06.141Z,4.00
2018-12-09T04:28:06.160Z,4.00
2018-12-09T04:29:06.173Z,4.00
2018-12-09T04:30:06.193Z,4.00
2018-12-09T04:31:06.205Z,4.00
2018-12-09T04:32:06.226Z,4.00
2018-12-09T04:33:06.240Z,4.00
2018-12-09T04:34:06.259Z,4.00
2018-12-09T04:35:06.270Z,4.00
2018-12-09T04:36:06.289Z,4.00
2018-12-09T04:37:06.303Z,4.00
2018-12-09T04:38:06.321Z,4.00
2018-12-09T04:39:06.337Z,4.00
2018-12-09T04:40:06.650Z,4.00
2018-12-09T04:41:06.371Z,4.00
2018-12-09T04:42:06.387Z,4.00
2018-12-09T04:43:06.401Z,4.00
2018-12-09T04:44:06.421Z,4.00
2018-12-09T04:45:06.433Z,4.00
2018-12-09T04:46:06.453Z,4.00
2018-12-09T04:47:06.467Z,4.00
2018-12-09T04:48:06.485Z,4.00
2018-12-09T04:49:06.499Z,4.00
2018-12-09T04:50:06.517Z,4.00
2018-12-09T04:51:06.535Z,4.00
2018-12-09T04:52:06.547Z,4.00
2018-12-09T04:53:06.563Z,4.00
2018-12-09T04:54:06.583Z,4.00
2018-12-09T04:55:06.596Z,4.00
2018-12-09T04:56:06.614Z,4.00
2018-12-09T04:57:06.628Z,4.00
2018-12-09T04:58:06.647Z,4.00
2018-12-09T04:59:06.661Z,4.00
2018-12-09T05:00:06.681Z,4.00
2018-12-09T05:01:06.694Z,4.00
2018-12-09T05:02:06.713Z,4.00
2018-12-09T05:03:06.729Z,4.00
2018-12-09T05:04:06.748Z,4.00
2018-12-09T05:05:06.763Z,4.00
2018-12-09T05:06:06.778Z,4.00
2018-12-09T05:07:06.793Z,4.00
2018-12-09T05:08:06.810Z,4.00
2018-12-09T05:09:06.827Z,4.00
2018-12-09T05:10:06.842Z,4.00
2018-12-09T05:11:06.857Z,4.00
2018-12-09T05:12:06.874Z,4.00
2018-12-09T05:13:06.891Z,4.00
2018-12-09T05:14:06.992Z,4.00
2018-12-09T05:15:06.924Z,4.00
2018-12-09T05:16:06.942Z,4.00
2018-12-09T05:17:06.956Z,4.00
2018-12-09T05:18:06.974Z,4.00
2018-12-09T05:19:07.000Z,4.00
2018-12-09T05:20:07.005Z,4.00
2018-12-09T05:21:07.024Z,4.00
2018-12-09T05:22:07.043Z,4.00
2018-12-09T05:23:07.058Z,4.00
2018-12-09T05:24:07.073Z,4.00
2018-12-09T05:25:07.089Z,4.00
2018-12-09T05:26:07.106Z,4.00
2018-12-09T05:27:07.123Z,4.00
2018-12-09T05:28:07.139Z,4.00
2018-12-09T05:29:07.154Z,4.00
2018-12-09T05:30:07.171Z,4.00
2018-12-09T05:31:07.188Z,4.00
2018-12-09T05:32:07.205Z,4.00
2018-12-09T05:33:07.221Z,4.00
2018-12-09T05:34:07.238Z,4.00
2018-12-09T05:35:07.252Z,4.00
2018-12-09T05:36:07.269Z,4.00
2018-12-09T05:37:07.292Z,4.00
2018-12-09T05:38:07.306Z,4.00
2018-12-09T05:39:07.318Z,4.00
2018-12-09T05:40:07.334Z,4.00
2018-12-09T05:41:07.353Z,4.00
2018-12-09T05:42:07.371Z,4.00
2018-12-09T05:43:07.387Z,4.00
2018-12-09T05:44:07.401Z,4.00
2018-12-09T05:45:07.419Z,4.00
2018-12-09T05:46:08.507Z,4.00
2018-12-09T05:47:07.453Z,4.00
2018-12-09T05:48:07.470Z,4.00
2018-12-09T05:49:07.487Z,4.00
2018-12-09T05:50:07.502Z,4.00
2018-12-09T05:51:07.516Z,4.00
2018-12-09T05:52:07.535Z,4.00
2018-12-09T05:53:07.550Z,4.00
2018-12-09T05:54:07.567Z,4.00
2018-12-09T05:55:07.584Z,4.00
2018-12-09T05:56:07.604Z,4.00
2018-12-09T05:57:07.619Z,4.00
2018-12-09T05:58:07.636Z,4.00
2018-12-09T05:59:07.652Z,4.00
2018-12-09T06:00:07.669Z,4.00
2018-12-09T06:01:07.686Z,4.00
2018-12-09T06:02:07.701Z,4.00
2018-12-09T06:03:07.716Z,4.00
2018-12-09T06:04:07.736Z,4.00
2018-12-09T06:05:07.755Z,4.00
2018-12-09T06:06:07.769Z,4.00
2018-12-09T06:07:07.783Z,4.00
2018-12-09T06:08:07.803Z,4.00
2018-12-09T06:09:07.821Z,4.00
2018-12-09T06:10:07.837Z,4.00
2018-12-09T06:11:07.854Z,4.00
2018-12-09T06:12:07.874Z,4.00
2018-12-09T06:13:07.886Z,4.00
2018-12-09T06:14:07.903Z,4.00
2018-12-09T06:15:07.916Z,4.00
2018-12-09T06:16:07.934Z,4.00
2018-12-09T06:17:07.952Z,4.00
2018-12-09T06:18:07.970Z,4.00
2018-12-09T06:19:07.984Z,4.00
2018-12-09T06:20:08.000Z,4.00
2018-12-09T06:21:08.018Z,4.00
2018-12-09T06:22:08.038Z,4.00
2018-12-09T06:23:08.051Z,4.00
2018-12-09T06:24:08.074Z,4.00
2018-12-09T06:25:08.097Z,4.00
2018-12-09T06:26:08.116Z,4.00
2018-12-09T06:27:08.120Z,4.00
2018-12-09T06:28:08.134Z,4.00
2018-12-09T06:29:08.150Z,4.00
2018-12-09T06:30:08.167Z,4.00
2018-12-09T06:31:08.182Z,4.00
2018-12-09T06:32:08.202Z,4.00
2018-12-09T06:33:08.217Z,4.00
2018-12-09T06:34:08.240Z,4.00
2018-12-09T06:35:08.249Z,4.00
2018-12-09T06:36:08.269Z,4.00
2018-12-09T06:37:08.286Z,4.00
2018-12-09T06:38:08.300Z,4.00
2018-12-09T06:39:08.397Z,4.00
2018-12-09T06:40:08.335Z,4.00
2018-12-09T06:41:08.351Z,4.00
2018-12-09T06:42:08.368Z,4.00
2018-12-09T06:43:08.385Z,4.00
2018-12-09T06:44:08.401Z,4.00
2018-12-09T06:45:08.415Z,4.00
2018-12-09T06:46:08.435Z,4.00
2018-12-09T06:47:08.448Z,4.00
2018-12-09T06:48:08.466Z,4.00
2018-12-09T06:49:08.483Z,4.00
2018-12-09T06:50:08.498Z,4.00
2018-12-09T06:51:08.514Z,4.00
2018-12-09T06:52:08.533Z,4.00
2018-12-09T06:53:08.550Z,4.00
2018-12-09T06:54:08.564Z,4.00
2018-12-09T06:55:08.582Z,4.00
2018-12-09T06:56:08.597Z,4.00
2018-12-09T06:57:08.614Z,4.00
2018-12-09T06:58:08.633Z,4.00
2018-12-09T06:59:08.650Z,8.00
2018-12-09T07:00:08.666Z,4.00
2018-12-09T07:01:08.683Z,8.00
2018-12-09T07:02:08.700Z,4.00
2018-12-09T07:03:08.712Z,8.00
2018-12-09T07:04:08.732Z,4.00
2018-12-09T07:05:08.747Z,8.00
2018-12-09T07:06:08.765Z,12.00
2018-12-09T07:07:08.779Z,12.00
2018-12-09T07:08:08.795Z,16.00
2018-12-09T07:09:08.815Z,20.00
2018-12-09T07:10:08.829Z,16.00
2018-12-09T07:11:08.847Z,16.00
2018-12-09T07:12:08.861Z,20.00
2018-12-09T07:13:08.880Z,20.00
2018-12-09T07:14:08.897Z,16.00
2018-12-09T07:15:08.974Z,20.00
2018-12-09T07:16:09.047Z,28.00
2018-12-09T07:17:08.948Z,36.00
2018-12-09T07:18:08.962Z,36.00
2018-12-09T07:19:08.979Z,44.00
2018-12-09T07:20:08.997Z,44.00
2018-12-09T07:21:09.013Z,32.00
2018-12-09T07:22:09.030Z,28.00
2018-12-09T07:23:09.044Z,36.00
2018-12-09T07:24:09.063Z,32.00
2018-12-09T07:25:09.078Z,32.00
2018-12-09T07:26:09.097Z,40.00
2018-12-09T07:27:09.112Z,56.00
2018-12-09T07:28:09.127Z,56.00
2018-12-09T07:29:09.144Z,72.00
2018-12-09T07:30:09.161Z,76.00
2018-12-09T07:31:09.180Z,92.00
2018-12-09T07:32:09.196Z,84.00
2018-12-09T07:33:09.212Z,104.00
2018-12-09T07:34:09.229Z,96.00
2018-12-09T07:35:09.248Z,108.00
2018-12-09T07:36:09.260Z,108.00
2018-12-09T07:37:09.277Z,96.00
2018-12-09T07:38:09.294Z,88.00
2018-12-09T07:39:09.313Z,92.00
2018-12-09T07:40:09.327Z,88.00
2018-12-09T07:41:09.346Z,84.00
2018-12-09T07:42:09.361Z,84.00
2018-12-09T07:43:09.378Z,84.00
2018-12-09T07:44:09.395Z,92.00
2018-12-09T07:45:09.412Z,96.00
2018-12-09T07:46:09.431Z,80.00
2018-12-09T07:47:09.445Z,72.00
2018-12-09T07:48:09.462Z,64.00
2018-12-09T07:49:09.479Z,64.00
2018-12-09T07:50:09.493Z,68.00
2018-12-09T07:51:09.510Z,68.00
2018-12-09T07:52:09.528Z,96.00
2018-12-09T07:53:09.545Z,104.00
2018-12-09T07:54:09.560Z,84.00
2018-12-09T07:55:09.578Z,100.00
2018-12-09T07:56:09.694Z,92.00
2018-12-09T07:57:09.609Z,112.00
2018-12-09T07:58:09.628Z,108.00
2018-12-09T07:59:09.641Z,108.00
2018-12-09T08:00:09.658Z,148.00
2018-12-09T08:01:09.675Z,140.00
2018-12-09T08:02:09.694Z,112.00
2018-12-09T08:03:09.711Z,140.00
2018-12-09T08:04:09.726Z,116.00
2018-12-09T08:05:09.742Z,100.00
2018-12-09T08:06:09.759Z,96.00
2018-12-09T08:07:09.773Z,128.00
2018-12-09T08:08:09.793Z,124.00
2018-12-09T08:09:09.806Z,112.00
2018-12-09T08:10:09.822Z,96.00
2018-12-09T08:11:09.840Z,80.00
2018-12-09T08:12:09.856Z,80.00
2018-12-09T08:13:09.873Z,80.00
2018-12-09T08:14:09.889Z,84.00
2018-12-09T08:15:10.004Z,92.00
2018-12-09T08:16:09.925Z,100.00
2018-12-09T08:17:09.939Z,108.00
2018-12-09T08:18:09.953Z,108.00
2018-12-09T08:19:09.971Z,108.00
2018-12-09T08:20:09.986Z,124.00
2018-12-09T08:21:09.999Z,144.00
2018-12-09T08:22:10.018Z,152.00
2018-12-09T08:23:10.031Z,156.00
2018-12-09T08:24:10.048Z,160.00
2018-12-09T08:25:10.065Z,152.00
2018-12-09T08:26:10.131Z,144.00
2018-12-09T08:27:10.094Z,136.00
2018-12-09T08:28:10.112Z,124.00
2018-12-09T08:29:10.126Z,152.00
2018-12-09T08:30:10.142Z,188.00
2018-12-09T08:31:10.160Z,232.00
2018-12-09T08:32:10.173Z,280.00
2018-12-09T08:33:10.192Z,312.00
2018-12-09T08:34:10.207Z,316.00
2018-12-09T08:35:10.220Z,304.00
2018-12-09T08:36:10.239Z,284.00
2018-12-09T08:37:10.252Z,264.00
2018-12-09T08:38:10.273Z,236.00
2018-12-09T08:39:10.286Z,208.00
2018-12-09T08:40:10.299Z,192.00
2018-12-09T08:41:10.317Z,180.00
2018-12-09T08:42:10.334Z,172.00
2018-12-09T08:43:10.347Z,176.00
2018-12-09T08:44:10.365Z,176.00
2018-12-09T08:45:10.382Z,176.00
2018-12-09T08:46:10.397Z,176.00
2018-12-09T08:47:10.410Z,180.00
2018-12-09T08:48:10.426Z,204.00
2018-12-09T08:49:10.444Z,256.00
2018-12-09T08:50:10.460Z,340.00
2018-12-09T08:51:10.476Z,412.00
2018-12-09T08:52:10.492Z,468.00
2018-12-09T08:53:10.509Z,512.00
2018-12-09T08:54:10.521Z,556.00
2018-12-09T08:55:10.539Z,596.00
2018-12-09T08:56:10.553Z,640.00
2018-12-09T08:57:10.574Z,668.00
2018-12-09T08:58:10.585Z,684.00
2018-12-09T08:59:10.600Z,704.00
2018-12-09T09:00:10.621Z,708.00
2018-12-09T09:01:10.636Z,716.00
2018-12-09T09:02:10.652Z,736.00
2018-12-09T09:03:10.665Z,780.00
2018-12-09T09:04:10.684Z,844.00
2018-12-09T09:05:10.696Z,916.00
2018-12-09T09:06:10.712Z,1004.00
2018-12-09T09:07:10.727Z,1080.00
2018-12-09T09:08:10.743Z,1116.00
2018-12-09T09:09:10.760Z,1100.00
2018-12-09T09:10:10.776Z,1044.00
2018-12-09T09:11:10.793Z,968.00
2018-12-09T09:12:10.830Z,908.00
2018-12-09T09:13:10.825Z,868.00
2018-12-09T09:14:10.842Z,856.00
2018-12-09T09:15:10.857Z,860.00
2018-12-09T09:16:10.872Z,864.00
2018-12-09T09:17:10.890Z,892.00
2018-12-09T09:18:10.904Z,940.00
2018-12-09T09:19:11.023Z,924.00
2018-12-09T09:20:10.935Z,836.00
2018-12-09T09:21:10.952Z,764.00
2018-12-09T09:22:10.974Z,884.00
2018-12-09T09:23:11.737Z,1044.00
2018-12-09T09:24:11.000Z,1168.00
2018-12-09T09:25:11.017Z,1232.00
2018-12-09T09:26:11.036Z,1336.00
2018-12-09T09:27:11.055Z,1512.00
2018-12-09T09:28:11.067Z,1620.00
2018-12-09T09:29:11.083Z,1860.00
2018-12-09T09:30:11.098Z,2124.00
2018-12-09T09:31:11.113Z,2476.00
2018-12-09T09:32:11.130Z,2448.00
2018-12-09T09:33:11.148Z,2636.00
2018-12-09T09:34:11.163Z,2676.00
2018-12-09T09:35:11.177Z,2524.00
2018-12-09T09:36:11.195Z,2196.00
2018-12-09T09:37:11.215Z,1832.00
2018-12-09T09:38:11.228Z,1468.00
2018-12-09T09:39:11.242Z,1172.00
2018-12-09T09:40:11.257Z,964.00
2018-12-09T09:41:11.282Z,792.00
2018-12-09T09:42:11.293Z,660.00
2018-12-09T09:43:11.306Z,576.00
2018-12-09T09:44:11.323Z,532.00
2018-12-09T09:45:11.341Z,532.00
2018-12-09T09:46:11.354Z,560.00
2018-12-09T09:47:11.373Z,612.00
2018-12-09T09:48:11.387Z,664.00
2018-12-09T09:49:11.403Z,700.00
2018-12-09T09:50:12.181Z,680.00
2018-12-09T09:51:11.436Z,644.00
2018-12-09T09:52:11.451Z,628.00
2018-12-09T09:53:11.468Z,672.00
2018-12-09T09:54:11.485Z,716.00
2018-12-09T09:55:11.502Z,764.00
2018-12-09T09:56:11.516Z,828.00
2018-12-09T09:57:11.541Z,892.00
2018-12-09T09:58:11.548Z,976.00
2018-12-09T09:59:11.567Z,1044.00
2018-12-09T10:00:11.580Z,1108.00
2018-12-09T10:01:11.596Z,1216.00
2018-12-09T10:02:11.615Z,1292.00
2018-12-09T10:03:11.631Z,1384.00
2018-12-09T10:04:11.645Z,1484.00
2018-12-09T10:05:11.661Z,1608.00
2018-12-09T10:06:11.677Z,1648.00
2018-12-09T10:07:11.692Z,1684.00
2018-12-09T10:08:11.709Z,1764.00
2018-12-09T10:09:11.728Z,1876.00
2018-12-09T10:10:11.741Z,1956.00
2018-12-09T10:11:11.757Z,2024.00
2018-12-09T10:12:11.773Z,2060.00
2018-12-09T10:13:11.789Z,2084.00
2018-12-09T10:14:11.813Z,2108.00
2018-12-09T10:15:11.867Z,2092.00
2018-12-09T10:16:11.839Z,2072.00
2018-12-09T10:17:11.858Z,2048.00
2018-12-09T10:18:11.921Z,2020.00
2018-12-09T10:19:11.886Z,1984.00
2018-12-09T10:20:11.904Z,1948.00
2018-12-09T10:21:11.921Z,1916.00
2018-12-09T10:22:11.936Z,1868.00
2018-12-09T10:23:11.952Z,1812.00
2018-12-09T10:24:11.967Z,1756.00
2018-12-09T10:25:11.984Z,1704.00
2018-12-09T10:26:12.103Z,1656.00
2018-12-09T10:27:12.017Z,1640.00
2018-12-09T10:28:12.032Z,1652.00
2018-12-09T10:29:12.052Z,1636.00
2018-12-09T10:30:12.067Z,1600.00
2018-12-09T10:31:12.081Z,1568.00
2018-12-09T10:32:12.100Z,1564.00
2018-12-09T10:33:12.117Z,1572.00
2018-12-09T10:34:12.130Z,1568.00
2018-12-09T10:35:12.146Z,1556.00
2018-12-09T10:36:12.162Z,1548.00
2018-12-09T10:37:12.179Z,1544.00
2018-12-09T10:38:12.197Z,1576.00
2018-12-09T10:39:12.214Z,1628.00
2018-12-09T10:40:12.228Z,1588.00
2018-12-09T10:41:12.243Z,1580.00
2018-12-09T10:42:12.259Z,1644.00
2018-12-09T10:43:12.278Z,1636.00
2018-12-09T10:44:12.294Z,1692.00
2018-12-09T10:45:12.308Z,1832.00
2018-12-09T10:46:12.427Z,1752.00
2018-12-09T10:47:12.339Z,1604.00
2018-12-09T10:48:12.357Z,1628.00
2018-12-09T10:49:12.373Z,1704.00
2018-12-09T10:50:12.392Z,1780.00
2018-12-09T10:51:12.404Z,2092.00
2018-12-09T10:52:12.423Z,1948.00
2018-12-09T10:53:12.437Z,2152.00
2018-12-09T10:54:12.456Z,2288.00
2018-12-09T10:55:12.472Z,1896.00
2018-12-09T10:56:12.488Z,1996.00
2018-12-09T10:57:12.504Z,2084.00
2018-12-09T10:58:12.518Z,2132.00
2018-12-09T10:59:12.534Z,1844.00
2018-12-09T11:00:12.550Z,1940.00
2018-12-09T11:01:12.567Z,1532.00
2018-12-09T11:02:12.584Z,1540.00
2018-12-09T11:03:12.601Z,2020.00
2018-12-09T11:04:12.618Z,2184.00
2018-12-09T11:05:12.632Z,1912.00
2018-12-09T11:06:12.649Z,2136.00
2018-12-09T11:07:12.664Z,2276.00
2018-12-09T11:08:12.686Z,2664.00
2018-12-09T11:09:12.697Z,2452.00
2018-12-09T11:10:12.717Z,1984.00
2018-12-09T11:11:12.731Z,1832.00
2018-12-09T11:12:12.746Z,1724.00
2018-12-09T11:13:12.764Z,1556.00
2018-12-09T11:14:12.781Z,1412.00
2018-12-09T11:15:12.795Z,1316.00
2018-12-09T11:16:12.813Z,1316.00
2018-12-09T11:17:12.828Z,1388.00
2018-12-09T11:18:12.845Z,1240.00
2018-12-09T11:19:12.862Z,1196.00
2018-12-09T11:20:12.877Z,1188.00
2018-12-09T11:21:12.893Z,1196.00
2018-12-09T11:22:12.913Z,1152.00
2018-12-09T11:23:12.929Z,1080.00
2018-12-09T11:24:12.945Z,1148.00
2018-12-09T11:25:12.967Z,1232.00
2018-12-09T11:26:12.976Z,1196.00
2018-12-09T11:27:12.991Z,1104.00
2018-12-09T11:28:13.011Z,1088.00
2018-12-09T11:29:13.025Z,1124.00
2018-12-09T11:30:13.041Z,1196.00
2018-12-09T11:31:13.057Z,1260.00
2018-12-09T11:32:13.075Z,1420.00
2018-12-09T11:33:13.092Z,1480.00
2018-12-09T11:34:13.106Z,1464.00
2018-12-09T11:35:13.130Z,1584.00
2018-12-09T11:36:13.147Z,1980.00
2018-12-09T11:37:13.160Z,2264.00
2018-12-09T11:38:13.185Z,2192.00
2018-12-09T11:39:13.190Z,1732.00
2018-12-09T11:40:13.206Z,1640.00
2018-12-09T11:41:13.224Z,1544.00
2018-12-09T11:42:13.240Z,1912.00
2018-12-09T11:43:13.256Z,2164.00
2018-12-09T11:44:13.272Z,2336.00
2018-12-09T11:45:13.290Z,2212.00
2018-12-09T11:46:13.306Z,1904.00
2018-12-09T11:47:13.319Z,1796.00
2018-12-09T11:48:13.338Z,1936.00
2018-12-09T11:49:13.354Z,1716.00
2018-12-09T11:50:13.371Z,1644.00
2018-12-09T11:53:13.422Z,1780.00
2018-12-09T11:54:13.436Z,1748.00
2018-12-09T11:55:13.457Z,1956.00
2018-12-09T11:56:13.471Z,1840.00
2018-12-09T11:57:13.486Z,1560.00
2018-12-09T11:58:13.504Z,1592.00
2018-12-09T11:59:13.517Z,1712.00
2018-12-09T12:00:13.535Z,1672.00
2018-12-09T12:01:13.550Z,1984.00
2018-12-09T12:02:20.039Z,1860.00
2018-12-09T12:03:13.587Z,1912.00
2018-12-09T12:04:13.602Z,2264.00
2018-12-09T12:05:13.621Z,2052.00
2018-12-09T12:06:13.634Z,2176.00
2018-12-09T12:07:13.656Z,2356.00
2018-12-09T12:08:13.666Z,2232.00
2018-12-09T12:09:13.682Z,2312.00
2018-12-09T12:10:13.702Z,2708.00
2018-12-09T12:11:13.717Z,2800.00
2018-12-09T12:12:13.739Z,2800.00
2018-12-09T12:13:13.751Z,2180.00
2018-12-09T12:14:13.766Z,2416.00
2018-12-09T12:15:13.784Z,2404.00
2018-12-09T12:16:13.802Z,2644.00
2018-12-09T12:17:13.817Z,3188.00
2018-12-09T12:18:13.833Z,3000.00
2018-12-09T12:19:13.848Z,3424.00
2018-12-09T12:20:13.868Z,3336.00
2018-12-09T12:21:13.884Z,2480.00
2018-12-09T12:22:13.900Z,2688.00
2018-12-09T12:23:13.916Z,2136.00
2018-12-09T12:24:13.934Z,2032.00
2018-12-09T12:25:13.950Z,2180.00
2018-12-09T12:26:13.965Z,2244.00
2018-12-09T12:27:13.981Z,2884.00
2018-12-09T12:28:14.001Z,2276.00
2018-12-09T12:29:14.018Z,3020.00
2018-12-09T12:30:14.034Z,2844.00
2018-12-09T12:31:14.050Z,3752.00
2018-12-09T12:32:14.065Z,3592.00
2018-12-09T12:33:14.086Z,3316.00
2018-12-09T12:34:14.150Z,2852.00
2018-12-09T12:35:14.114Z,3132.00
2018-12-09T12:36:14.134Z,3416.00
2018-12-09T12:37:14.148Z,3096.00
2018-12-09T12:38:14.165Z,2208.00
2018-12-09T12:39:14.185Z,1632.00
2018-12-09T12:40:14.198Z,1348.00
2018-12-09T12:41:14.215Z,1308.00
2018-12-09T12:42:14.235Z,1632.00
2018-12-09T12:43:14.249Z,1720.00
2018-12-09T12:44:14.266Z,1696.00
2018-12-09T12:45:14.335Z,1776.00
2018-12-09T12:46:14.300Z,1816.00
2018-12-09T12:47:14.321Z,1784.00
2018-12-09T12:48:14.333Z,1676.00
2018-12-09T12:49:14.351Z,1844.00
2018-12-09T12:50:14.368Z,1464.00
2018-12-09T12:51:14.392Z,1588.00
2018-12-09T12:52:14.455Z,1744.00
2018-12-09T12:53:14.419Z,1516.00
2018-12-09T12:54:14.443Z,1488.00